Terminal Aerodrome Forecast
Issued by NWS

Home | Current Version | Previous Version | Text Only | Print | Product List | Glossary On
Versions: 1 2 3 4 5 6 7 8 9 10 11 12 13 14 15 16 17 18
000
FTUS44 KTSA 050000 AAA
TAFBVO
TAF AMD
KBVO 050059Z 0501/0524 02015G18KT P6SM OVC090
      TEMPO 0501/0503 3SM -SN
     FM050300 02004KT P6SM OVC100
     FM050900 32002KT P6SM BKN200
     FM052200 16004KT P6SM SKC=

USA.gov is the U.S. government's official web portal to all federal, state and local government web resources and services.